Time;durP1;ratioP1;P1;durP2;ratioP2;P2;SDS_P1;SDS_P2;PMS_P1;PMS_P2;Temp;Humidity;BMP_temperature;BMP_pressure;BME280_temperature;BME280_humidity;BME280_pressure;Samples;Min_cycle;Max_cycle;Signal;HPM_P1;HPM_P2
2022/04/26 03:38:06;;;;;;;8.15;5.40;;;;;;;10.38;67.34;96796.66;6093273;23;20195;-85
2022/04/26 03:40:32;;;;;;;7.15;5.25;;;;;;;10.36;67.64;96799.53;6088164;23;20500;-85
2022/04/26 03:42:57;;;;;;;8.65;6.40;;;;;;;10.39;67.45;96795.66;6123334;23;20273;-84
2022/04/26 03:45:22;;;;;;;8.75;6.25;;;;;;;10.38;67.36;96801.88;6097040;23;20191;-84
2022/04/26 03:47:49;;;;;;;7.68;5.45;;;;;;;10.40;67.48;96807.59;6122645;23;20167;-84
2022/04/26 03:50:14;;;;;;;7.28;6.20;;;;;;;10.43;67.58;96804.50;6123362;23;20226;-84
2022/04/26 03:52:40;;;;;;;7.25;5.70;;;;;;;10.43;67.51;96801.91;6063155;23;20262;-84
2022/04/26 03:55:06;;;;;;;8.63;6.70;;;;;;;10.43;67.46;96807.88;6059700;23;20515;-84
2022/04/26 03:57:31;;;;;;;8.50;7.22;;;;;;;10.49;68.11;96806.88;6063299;23;20183;-84
2022/04/26 03:59:57;;;;;;;9.30;7.25;;;;;;;10.53;67.84;96807.16;6088570;23;20180;-84
2022/04/26 04:02:23;;;;;;;10.52;7.22;;;;;;;10.56;67.84;96809.28;6063584;23;20183;-84
2022/04/26 04:04:49;;;;;;;9.40;7.10;;;;;;;10.55;67.52;96809.53;6064023;23;20232;-85
2022/04/26 04:07:15;;;;;;;7.95;6.80;;;;;;;10.63;67.53;96817.63;6097967;23;20141;-85
2022/04/26 04:09:40;;;;;;;9.90;7.70;;;;;;;10.61;67.74;96813.72;6088165;23;20175;-84
2022/04/26 04:12:06;;;;;;;9.15;7.38;;;;;;;10.64;68.08;96829.63;6098175;23;20159;-84
2022/04/26 04:14:31;;;;;;;8.73;6.72;;;;;;;10.63;67.93;96820.22;6087967;23;20171;-84
2022/04/26 04:16:57;;;;;;;9.38;7.20;;;;;;;10.67;68.04;96817.91;6063401;23;20191;-85
2022/04/26 04:19:25;;;;;;;9.30;6.93;;;;;;;10.68;68.01;96820.25;6098057;23;20136;-84
2022/04/26 04:21:51;;;;;;;9.48;7.63;;;;;;;10.71;67.87;96823.38;6096804;23;20298;-84
2022/04/26 04:24:17;;;;;;;8.82;6.65;;;;;;;10.59;67.87;96811.38;6087116;23;20276;-84
2022/04/26 04:26:43;;;;;;;9.52;6.63;;;;;;;10.70;68.16;96830.44;6097440;23;20624;-85
2022/04/26 04:29:09;;;;;;;11.40;7.70;;;;;;;10.65;67.96;96827.78;6087630;23;20271;-84
2022/04/26 04:31:35;;;;;;;11.23;7.63;;;;;;;10.67;67.93;96828.31;6097714;23;20254;-84
2022/04/26 04:34:02;;;;;;;9.38;6.95;;;;;;;10.65;67.68;96830.41;6111807;23;20235;-84
2022/04/26 04:36:27;;;;;;;9.55;7.07;;;;;;;10.52;67.70;96821.25;6087851;23;20187;-84
2022/04/26 04:38:53;;;;;;;9.55;7.30;;;;;;;10.60;67.57;96844.16;6124054;23;20335;-85
2022/04/26 04:41:19;;;;;;;10.18;7.25;;;;;;;10.61;67.96;96840.53;6087765;23;20758;-85
2022/04/26 04:43:44;;;;;;;9.95;7.57;;;;;;;10.63;68.11;96838.47;6087735;23;20248;-84
2022/04/26 04:46:10;;;;;;;10.52;7.13;;;;;;;10.67;67.61;96847.31;6097689;23;20268;-84
2022/04/26 04:48:35;;;;;;;9.48;7.38;;;;;;;10.77;67.26;96858.84;6087458;23;20168;-84
2022/04/26 04:51:01;;;;;;;8.90;6.75;;;;;;;10.60;67.45;96841.56;6063496;23;20306;-84
2022/04/26 04:53:26;;;;;;;7.80;6.53;;;;;;;10.64;67.32;96849.66;6087470;23;20311;-85
2022/04/26 04:55:52;;;;;;;9.80;7.18;;;;;;;10.77;66.89;96858.84;6120941;23;20249;-85
2022/04/26 04:58:17;;;;;;;13.35;7.15;;;;;;;10.75;66.77;96855.72;6087092;23;20359;-85
2022/04/26 05:00:43;;;;;;;7.57;6.20;;;;;;;10.71;66.70;96850.22;6096213;23;20459;-85
2022/04/26 05:03:08;;;;;;;7.75;6.10;;;;;;;10.71;66.88;96857.25;6086826;23;20438;-85
2022/04/26 05:05:35;;;;;;;16.23;6.55;;;;;;;10.67;67.41;96857.72;6086868;23;20429;-84
2022/04/26 05:08:00;;;;;;;6.65;5.28;;;;;;;10.77;67.34;96864.06;6086167;23;20190;-85
2022/04/26 05:10:26;;;;;;;7.40;6.05;;;;;;;10.69;67.11;96854.88;6096421;23;20180;-84
2022/04/26 05:12:51;;;;;;;11.93;5.57;;;;;;;10.68;67.49;96855.94;6096671;23;20305;-85
2022/04/26 05:15:17;;;;;;;13.93;6.30;;;;;;;10.67;67.47;96860.34;6061849;23;20167;-85
2022/04/26 05:17:42;;;;;;;8.90;5.40;;;;;;;10.78;67.21;96860.41;6086314;23;20159;-84
2022/04/26 05:20:08;;;;;;;7.55;6.15;;;;;;;10.83;67.46;96863.03;6111145;23;20210;-84
2022/04/26 05:24:53;;;;;;;7.03;5.43;;;;;;;10.89;67.27;96871.66;6111047;23;20187;-84
2022/04/26 05:25:20;;;;;;;7.60;5.45;;;;;;;10.83;67.63;96858.63;6090096;23;20216;-84
2022/04/26 05:27:45;;;;;;;9.73;6.65;;;;;;;10.88;67.58;96870.88;6061319;23;20206;-84
2022/04/26 05:30:12;;;;;;;9.63;6.82;;;;;;;10.87;67.83;96869.31;6086517;23;20226;-84
2022/04/26 05:32:38;;;;;;;8.07;5.75;;;;;;;10.94;67.71;96874.28;6122068;23;20258;-84
2022/04/26 05:35:04;;;;;;;10.85;7.78;;;;;;;10.96;67.58;96867.00;6097834;23;20195;-84
2022/04/26 05:37:31;;;;;;;9.82;7.40;;;;;;;10.99;67.62;96851.66;6062384;23;20145;-84
2022/04/26 05:40:02;;;;;;;9.20;7.53;;;;;;;11.13;67.48;96864.22;6064904;23;20176;-84
2022/04/26 05:42:28;;;;;;;10.48;7.60;;;;;;;11.20;67.43;96862.91;6063762;23;20553;-84
2022/04/26 05:44:53;;;;;;;9.18;7.40;;;;;;;11.31;67.44;96874.19;6146654;23;20144;-84
2022/04/26 05:47:19;;;;;;;10.18;7.78;;;;;;;11.36;67.41;96863.78;6096699;23;20162;-83
2022/04/26 05:49:45;;;;;;;11.30;8.43;;;;;;;11.42;66.78;96860.13;6087263;23;20167;-84
2022/04/26 05:52:10;;;;;;;10.93;8.05;;;;;;;11.42;66.78;96865.34;6121432;23;20225;-83
2022/04/26 05:54:35;;;;;;;9.75;7.88;;;;;;;11.54;66.94;96864.34;6095966;23;20262;-83
2022/04/26 05:57:01;;;;;;;12.18;8.50;;;;;;;11.49;66.77;96853.88;6096621;23;20646;-83
2022/04/26 05:59:26;;;;;;;10.95;7.82;;;;;;;11.56;66.93;96870.06;6063497;23;20180;-83
2022/04/26 06:01:52;;;;;;;10.23;8.00;;;;;;;11.59;66.54;96875.53;6088093;23;20141;-83
2022/04/26 06:04:18;;;;;;;12.68;8.57;;;;;;;11.71;66.00;96869.31;6087307;23;20100;-83
2022/04/26 06:06:44;;;;;;;9.15;7.25;;;;;;;11.75;65.98;96852.88;6096740;23;20199;-83
2022/04/26 06:09:09;;;;;;;10.07;6.93;;;;;;;11.89;65.38;96862.81;6096897;23;20504;-83
2022/04/26 06:11:35;;;;;;;8.82;6.28;;;;;;;11.89;66.04;96863.59;6097215;23;20582;-83
2022/04/26 06:14:02;;;;;;;8.50;6.30;;;;;;;11.93;65.93;96871.72;6096743;23;20175;-83
2022/04/26 06:16:28;;;;;;;10.10;7.18;;;;;;;12.00;66.23;96874.84;6062463;23;20177;-82
2022/04/26 06:18:54;;;;;;;9.52;6.93;;;;;;;12.03;66.32;96863.91;6121747;23;20157;-82
2022/04/26 06:21:19;;;;;;;9.85;8.25;;;;;;;12.15;65.66;96874.84;6062427;23;20630;-82
2022/04/26 06:23:45;;;;;;;10.25;8.82;;;;;;;12.28;65.39;96877.97;6086087;23;20332;-82
2022/04/26 06:26:10;;;;;;;10.25;8.38;;;;;;;12.37;65.73;96884.22;6096712;23;20673;-83
2022/04/26 06:28:35;;;;;;;9.50;7.25;;;;;;;12.43;65.64;96879.81;6061869;23;20234;-82
2022/04/26 06:31:02;;;;;;;9.57;7.15;;;;;;;12.43;65.79;96882.41;6087566;23;20184;-82
2022/04/26 06:33:28;;;;;;;11.15;8.50;;;;;;;12.51;66.08;96885.28;6124420;23;20168;-83
2022/04/26 06:35:53;;;;;;;12.20;8.88;;;;;;;12.73;66.13;96886.78;6123986;23;20188;-82
2022/04/26 06:38:19;;;;;;;10.77;8.38;;;;;;;13.00;64.58;96885.69;6064341;23;20250;-82
2022/04/26 06:40:48;;;;;;;9.30;7.43;;;;;;;12.98;64.39;96887.78;6089109;23;20273;-82
2022/04/26 06:43:14;;;;;;;8.65;6.68;;;;;;;13.07;63.63;96886.16;6066917;23;20220;-83
2022/04/26 06:45:40;;;;;;;9.05;7.40;;;;;;;12.98;63.64;96893.00;6090085;23;20147;-83
2022/04/26 06:48:07;;;;;;;10.20;7.30;;;;;;;12.81;63.60;96888.84;6099314;23;20246;-83
2022/04/26 06:50:33;;;;;;;9.02;6.07;;;;;;;12.97;62.81;96891.44;6089489;23;20179;-83
2022/04/26 06:52:58;;;;;;;7.93;6.53;;;;;;;13.01;62.72;96900.31;6088486;23;20263;-83
2022/04/26 06:55:23;;;;;;;9.85;7.55;;;;;;;13.08;61.99;96898.97;6119603;23;20163;-83
2022/04/26 06:57:49;;;;;;;10.27;7.47;;;;;;;13.08;61.82;96903.44;6123262;23;20302;-82
2022/04/26 07:00:15;;;;;;;10.63;8.15;;;;;;;13.13;61.52;96903.41;6098315;23;20173;-84
2022/04/26 07:02:40;;;;;;;11.80;8.10;;;;;;;12.97;63.75;96901.88;6099345;23;20187;-83
2022/04/26 07:05:06;;;;;;;10.32;7.45;;;;;;;12.90;63.14;96902.97;6083871;23;20262;-82
2022/04/26 07:07:31;;;;;;;10.35;8.30;;;;;;;12.84;63.17;96904.00;6088604;23;20113;-84
2022/04/26 07:09:57;;;;;;;12.88;9.38;;;;;;;12.64;64.60;96896.22;6114182;23;20177;-82
2022/04/26 07:12:22;;;;;;;12.88;9.43;;;;;;;12.67;65.03;96903.53;6063543;23;20149;-82
2022/04/26 07:14:48;;;;;;;12.30;8.88;;;;;;;12.70;64.71;96908.22;6088975;23;20172;-82
2022/04/26 07:17:13;;;;;;;11.35;8.80;;;;;;;12.77;65.60;96911.34;6099042;23;20187;-83
2022/04/26 07:19:39;;;;;;;13.07;9.70;;;;;;;12.93;65.32;96915.47;6088078;23;20240;-81
2022/04/26 07:22:08;;;;;;;11.88;9.10;;;;;;;13.16;64.14;96915.16;6099160;23;20172;-82
2022/04/26 07:24:33;;;;;;;11.77;8.90;;;;;;;13.18;62.53;96913.84;6101837;23;20195;-83
2022/04/26 07:26:59;;;;;;;12.48;9.57;;;;;;;13.06;62.44;96915.97;6112029;23;20155;-83
2022/04/26 07:29:25;;;;;;;11.95;9.60;;;;;;;13.07;62.30;96922.75;6087845;23;20153;-82
2022/04/26 07:31:50;;;;;;;12.23;9.35;;;;;;;12.79;63.25;96916.31;6063933;23;20153;-82
2022/04/26 07:34:21;;;;;;;12.80;9.20;;;;;;;13.05;62.94;96917.78;6097618;23;20187;-82
2022/04/26 07:36:53;;;;;;;14.00;9.77;;;;;;;13.18;62.80;96924.31;6098700;23;20164;-85
2022/04/26 07:39:18;;;;;;;13.88;9.90;;;;;;;13.59;61.24;96920.75;6122700;23;20517;-83
2022/04/26 07:41:47;;;;;;;12.30;9.43;;;;;;;13.45;61.01;96929.19;6061802;23;20106;-83
2022/04/26 07:44:14;;;;;;;13.93;9.70;;;;;;;13.49;61.95;96938.06;6061378;23;20291;-83
2022/04/26 07:46:41;;;;;;;12.32;9.27;;;;;;;13.44;61.98;96926.84;6118053;23;20566;-81
2022/04/26 07:49:06;;;;;;;13.38;9.50;;;;;;;13.41;61.87;96927.38;6060884;23;20277;-82
2022/04/26 07:51:32;;;;;;;13.73;9.25;;;;;;;13.63;61.94;96933.03;6087527;23;20520;-82
2022/04/26 07:53:58;;;;;;;12.45;9.90;;;;;;;13.68;61.85;96942.69;6087690;23;20269;-82
2022/04/26 07:56:24;;;;;;;13.63;10.07;;;;;;;13.90;61.31;96937.06;6107530;23;20405;-83
2022/04/26 07:58:49;;;;;;;12.32;9.27;;;;;;;14.15;59.84;96935.34;6086121;23;20274;-83
2022/04/26 08:01:15;;;;;;;11.98;9.35;;;;;;;14.21;60.30;96940.25;6086327;23;20265;-83
2022/04/26 08:03:40;;;;;;;10.90;8.32;;;;;;;14.71;59.48;96942.75;6110894;23;20187;-82
2022/04/26 08:06:06;;;;;;;10.93;8.35;;;;;;;15.09;57.37;96937.66;6093578;23;20243;-83
2022/04/26 08:08:31;;;;;;;11.25;8.77;;;;;;;15.23;57.56;96939.63;6121263;23;20179;-85
2022/04/26 08:10:58;;;;;;;11.18;8.50;;;;;;;15.33;56.58;96942.13;6097923;23;20649;-83
2022/04/26 08:13:23;;;;;;;9.98;7.97;;;;;;;15.25;56.72;96940.91;6097988;23;20200;-82
2022/04/26 08:15:49;;;;;;;10.18;7.88;;;;;;;15.29;56.74;96944.53;6122124;23;20250;-83
2022/04/26 08:18:15;;;;;;;8.70;6.95;;;;;;;14.98;57.25;96951.97;6057781;23;20266;-83
2022/04/26 08:20:41;;;;;;;9.75;8.60;;;;;;;14.56;57.83;96955.97;6091222;23;20137;-81
2022/04/26 08:23:10;;;;;;;9.35;7.05;;;;;;;14.59;57.83;96955.44;6097274;23;20230;-82
2022/04/26 08:28:47;;;;;;;8.88;7.05;;;;;;;14.33;57.91;96967.94;6092242;23;20480;-84
2022/04/26 08:31:13;;;;;;;8.50;7.15;;;;;;;14.29;58.92;96970.34;6098901;23;20160;-85
2022/04/26 08:33:38;;;;;;;9.63;7.50;;;;;;;14.32;58.57;96982.88;6098744;23;20220;-84
2022/04/26 08:36:04;;;;;;;9.43;7.32;;;;;;;14.23;58.17;96979.28;6063403;23;20472;-84
2022/04/26 08:38:29;;;;;;;8.68;6.80;;;;;;;14.27;56.37;96990.75;6112973;23;20180;-84
2022/04/26 08:40:55;;;;;;;9.95;7.00;;;;;;;14.21;56.68;96991.84;6123247;23;20569;-84
2022/04/26 08:43:20;;;;;;;7.53;5.60;;;;;;;13.97;55.92;97008.22;6123873;23;20288;-86
2022/04/26 08:45:46;;;;;;;7.50;5.78;;;;;;;13.70;56.04;97016.47;6063737;23;20213;-82
2022/04/26 08:50:59;;;;;;;7.93;5.35;;;;;;;12.91;57.43;97018.72;6123380;23;20378;-84
2022/04/26 08:53:27;;;;;;;9.70;6.45;;;;;;;12.38;59.92;97031.25;6081779;23;20662;-88
2022/04/26 08:55:55;;;;;;;8.65;5.78;;;;;;;12.17;59.34;97021.53;6107886;23;20133;-87
2022/04/26 08:58:32;;;;;;;10.88;6.00;;;;;;;11.94;62.08;97017.56;6063611;23;20590;-88
2022/04/26 09:01:13;;;;;;;9.70;6.30;;;;;;;11.81;62.17;97024.00;6079546;23;20266;-88
2022/04/26 09:03:39;;;;;;;10.07;6.47;;;;;;;11.94;62.42;97028.00;6054241;23;20180;-89
2022/04/26 09:06:15;;;;;;;11.15;6.30;;;;;;;11.86;62.85;97025.88;6083218;23;20378;-89
2022/04/26 09:08:52;;;;;;;;;;;;;;;;;;;;;
2022/04/26 09:11:27;;;;;;;11.82;7.25;;;;;;;11.74;64.68;97041.72;6089973;23;20727;-88
2022/04/26 09:13:56;;;;;;;7.82;4.57;;;;;;;11.77;65.02;97040.41;6124358;23;20214;-88
2022/04/26 09:16:25;;;;;;;8.50;4.57;;;;;;;11.75;64.57;97016.41;6062609;23;20661;-88
2022/04/26 09:19:05;;;;;;;8.32;4.57;;;;;;;11.81;64.15;97020.63;6063742;23;20168;-88
2022/04/26 09:21:32;;;;;;;6.07;4.45;;;;;;;12.01;64.37;97027.75;6123426;23;20682;-88
2022/04/26 09:24:07;;;;;;;6.95;4.53;;;;;;;12.06;64.73;97055.69;6064595;23;20184;-87
2022/04/26 09:26:34;;;;;;;5.35;3.20;;;;;;;12.14;64.03;97055.19;6089179;23;20337;-88
2022/04/26 09:29:04;;;;;;;5.03;3.40;;;;;;;11.96;64.73;97048.59;6118840;23;20250;-88
2022/04/26 09:31:37;;;;;;;4.90;3.47;;;;;;;11.86;64.33;97022.44;6063967;23;20181;-88
2022/04/26 09:34:13;;;;;;;4.28;3.28;;;;;;;12.00;65.38;97047.06;6063703;23;20264;-88
2022/04/26 09:36:48;;;;;;;4.25;3.13;;;;;;;11.91;65.82;97033.75;6088721;23;20175;-87
2022/04/26 09:39:21;;;;;;;4.07;3.10;;;;;;;12.13;64.72;97037.97;6065625;23;20085;-86
2022/04/26 09:41:52;;;;;;;4.63;3.08;;;;;;;12.37;64.17;97053.94;6112163;23;20450;-85
2022/04/26 09:44:30;;;;;;;3.97;2.90;;;;;;;12.29;63.03;97041.41;6063101;23;20186;-87
2022/04/26 09:46:55;;;;;;;4.15;2.78;;;;;;;12.52;63.62;97048.72;6122308;23;20171;-86
2022/04/26 09:49:22;;;;;;;4.90;3.20;;;;;;;12.54;64.57;97057.13;6098724;23;20180;-86
2022/04/26 09:51:56;;;;;;;5.03;2.78;;;;;;;12.63;63.75;97074.88;6114085;23;20260;-86
2022/04/26 09:54:22;;;;;;;5.13;3.10;;;;;;;12.76;63.79;97060.53;6098654;23;20164;-86
2022/04/26 09:56:48;;;;;;;5.65;3.30;;;;;;;12.64;64.02;97037.25;6087832;23;20202;-86
2022/04/26 09:59:39;;;;;;;5.00;3.47;;;;;;;12.93;63.98;97061.81;6062670;23;20248;-86
2022/04/26 10:02:10;;;;;;;4.50;3.40;;;;;;;13.29;63.77;97061.78;6092621;23;20163;-86
2022/04/26 10:04:37;;;;;;;3.67;2.60;;;;;;;13.68;63.00;97066.44;6063387;23;20594;-86
2022/04/26 10:07:07;;;;;;;6.07;3.30;;;;;;;14.01;62.60;97061.59;6098568;23;20251;-85
2022/04/26 10:09:34;;;;;;;8.95;3.95;;;;;;;14.35;62.52;97070.59;6098063;23;20191;-84
2022/04/26 10:12:00;;;;;;;4.22;2.85;;;;;;;14.73;61.03;97066.44;6098447;23;20634;-85
2022/04/26 10:14:28;;;;;;;4.15;3.25;;;;;;;15.08;58.72;97069.03;6067659;23;20271;-86
2022/04/26 10:16:54;;;;;;;4.65;3.05;;;;;;;15.49;57.56;97069.47;6068783;23;20177;-85
2022/04/26 10:19:36;;;;;;;3.85;2.83;;;;;;;15.42;56.73;97066.41;6090251;23;20253;-85
2022/04/26 10:22:01;;;;;;;4.72;2.60;;;;;;;15.72;54.96;97081.00;6066583;23;20187;-83
2022/04/26 10:24:27;;;;;;;4.03;2.78;;;;;;;15.49;54.13;97077.34;6124990;23;20673;-83
2022/04/26 10:26:52;;;;;;;4.07;2.70;;;;;;;15.19;55.43;97077.63;6091933;23;20184;-83
2022/04/26 10:29:23;;;;;;;3.75;2.90;;;;;;;14.89;56.38;97082.84;6098567;23;20608;-85
2022/04/26 10:31:49;;;;;;;4.60;2.30;;;;;;;14.98;56.11;97077.81;6062233;23;20237;-84
2022/04/26 10:34:15;;;;;;;3.55;2.38;;;;;;;15.29;55.07;97082.78;6122296;23;20168;-83
2022/04/26 10:36:41;;;;;;;4.32;3.03;;;;;;;15.49;55.31;97079.16;6085495;23;20533;-84
2022/04/26 10:39:09;;;;;;;3.00;2.45;;;;;;;15.67;53.41;97078.44;6121690;23;20145;-84
2022/04/26 10:41:39;;;;;;;4.75;3.42;;;;;;;15.19;54.69;97077.63;6087680;23;20184;-84
2022/04/26 10:44:22;;;;;;;4.63;3.33;;;;;;;15.02;53.80;97088.53;6121003;23;20215;-83
2022/04/26 10:46:58;;;;;;;5.03;3.47;;;;;;;15.08;55.85;97080.34;6121741;23;20595;-83
2022/04/26 10:49:33;;;;;;;4.68;3.22;;;;;;;14.69;56.89;97081.16;6121920;23;20175;-84
2022/04/26 10:52:24;;;;;;;4.95;3.78;;;;;;;14.78;57.60;97082.13;6111863;23;20665;-83
2022/04/26 10:54:55;;;;;;;4.45;2.97;;;;;;;15.28;54.13;97081.22;6147953;23;20551;-83
2022/04/26 10:57:26;;;;;;;3.70;3.25;;;;;;;15.31;54.30;97083.28;6109740;23;20555;-82
2022/04/26 10:59:56;;;;;;;4.28;3.30;;;;;;;15.18;54.78;97076.81;6120548;23;20148;-86
2022/04/26 11:02:23;;;;;;;4.55;2.75;;;;;;;15.53;50.67;97072.31;6096830;23;20172;-83
2022/04/26 11:04:57;;;;;;;4.43;3.30;;;;;;;15.50;49.66;97073.63;6097162;23;20278;-86
2022/04/26 11:07:26;;;;;;;3.72;2.85;;;;;;;15.46;51.90;97079.75;6095686;23;20086;-83
2022/04/26 11:09:53;;;;;;;4.28;3.13;;;;;;;15.16;53.65;97089.44;6096261;23;20308;-84
2022/04/26 11:12:23;;;;;;;3.67;2.97;;;;;;;15.19;53.90;97093.38;6121074;23;20500;-83
2022/04/26 11:14:52;;;;;;;4.18;2.95;;;;;;;15.16;56.23;97098.09;6121319;23;20243;-86
2022/04/26 11:17:21;;;;;;;5.40;3.75;;;;;;;14.23;59.90;97102.34;6088231;23;20147;-88
2022/04/26 11:19:51;;;;;;;7.70;4.28;;;;;;;13.46;60.41;97108.59;6101825;23;20078;-84
2022/04/26 11:22:18;;;;;;;7.03;4.97;;;;;;;13.46;60.65;97092.13;6125398;23;20239;-87
2022/04/26 11:30:33;;;;;;;6.30;4.75;;;;;;;13.84;62.12;97100.41;6113860;23;20175;-87
2022/04/26 11:33:01;;;;;;;6.45;4.30;;;;;;;13.86;61.99;97103.53;6064136;23;20196;-87
2022/04/26 11:36:31;;;;;;;6.28;4.63;;;;;;;13.72;64.36;97110.38;6124355;23;20257;-87
2022/04/26 11:38:57;;;;;;;6.82;5.28;;;;;;;14.02;62.68;97094.59;6003606;23;20199;-87
2022/04/26 11:41:25;;;;;;;6.78;4.90;;;;;;;14.23;60.95;97108.34;6066064;23;20222;-86
2022/04/26 11:44:03;;;;;;;6.28;5.05;;;;;;;14.59;59.67;97100.34;6097923;23;20531;-87
2022/04/26 11:46:30;;;;;;;5.70;4.53;;;;;;;15.29;58.58;97103.75;6063620;23;20163;-86
2022/04/26 11:48:59;;;;;;;6.93;5.30;;;;;;;15.47;60.39;97108.31;6099601;23;20065;-87
2022/04/26 11:51:26;;;;;;;6.82;4.95;;;;;;;15.49;59.43;97089.66;6089826;23;20188;-87
2022/04/26 11:53:53;;;;;;;5.30;4.00;;;;;;;15.26;55.79;97101.69;6064286;23;20156;-85
2022/04/26 11:56:21;;;;;;;6.68;5.07;;;;;;;14.92;59.33;97118.22;6088765;23;20171;-83
2022/04/26 11:58:49;;;;;;;6.68;5.25;;;;;;;14.56;61.22;97118.41;6064098;23;20249;-84
2022/04/26 12:01:16;;;;;;;6.78;4.95;;;;;;;14.45;61.32;97117.69;6088388;23;20215;-86
2022/04/26 12:03:48;;;;;;;6.78;5.38;;;;;;;14.36;61.18;97129.78;6122803;23;20279;-85
2022/04/26 12:06:19;;;;;;;7.10;5.10;;;;;;;14.18;61.86;97134.56;6121879;23;20598;-87
2022/04/26 12:08:55;;;;;;;6.95;5.68;;;;;;;14.11;62.23;97133.31;6064026;23;20317;-87
2022/04/26 12:11:37;;;;;;;6.32;5.40;;;;;;;14.01;62.61;97131.50;6089349;23;20527;-87
2022/04/26 12:14:14;;;;;;;7.68;5.30;;;;;;;14.17;62.19;97147.94;6111611;23;20191;-87
2022/04/26 12:16:42;;;;;;;6.40;4.70;;;;;;;13.76;61.78;97142.81;6090092;23;20179;-86
2022/04/26 12:19:08;;;;;;;5.15;4.18;;;;;;;13.78;62.27;97125.03;6123771;23;20164;-88
2022/04/26 12:21:56;;;;;;;6.00;4.30;;;;;;;13.70;61.26;97165.59;6065806;23;20594;-85
2022/04/26 12:24:27;;;;;;;5.30;3.90;;;;;;;13.96;62.03;97153.22;6089230;23;20306;-86
2022/04/26 12:27:02;;;;;;;5.05;3.85;;;;;;;13.91;62.37;97161.09;6087272;23;20522;-87
2022/04/26 12:29:29;;;;;;;6.15;3.50;;;;;;;14.13;61.25;97160.00;6088783;23;20504;-88
2022/04/26 12:31:55;;;;;;;4.00;2.92;;;;;;;13.88;61.27;97156.41;6113868;23;20164;-88
2022/04/26 12:34:29;;;;;;;3.90;3.05;;;;;;;13.67;62.06;97159.06;6089099;23;20635;-84
2022/04/26 12:36:55;;;;;;;3.33;3.00;;;;;;;13.10;61.67;97154.88;6089360;23;20277;-86
2022/04/26 12:39:21;;;;;;;4.05;3.22;;;;;;;13.27;62.27;97158.00;6123833;23;20250;-87
2022/04/26 12:41:51;;;;;;;4.82;3.03;;;;;;;13.42;62.13;97148.63;6090709;23;20544;-88
2022/04/26 12:44:18;;;;;;;4.07;3.30;;;;;;;13.64;61.58;97146.50;6098709;23;20470;-88
2022/04/26 12:50:27;;;;;;;4.40;3.65;;;;;;;13.51;62.22;97144.44;6063772;23;20278;-88
2022/04/26 12:52:30;;;;;;;4.63;4.22;;;;;;;13.78;62.74;97164.28;6092573;23;20274;-87
2022/04/26 12:54:56;;;;;;;6.53;4.57;;;;;;;13.77;61.68;97162.72;6123029;23;20330;-87
2022/04/26 12:57:21;;;;;;;6.45;5.20;;;;;;;13.66;61.18;97160.09;6097625;23;20205;-87
2022/04/26 12:59:47;;;;;;;6.20;4.95;;;;;;;13.62;59.41;97163.50;6098263;23;20207;-87
2022/04/26 13:02:13;;;;;;;6.10;5.32;;;;;;;13.64;60.77;97136.03;6063628;23;20470;-87
2022/04/26 13:04:39;;;;;;;6.40;5.22;;;;;;;13.95;61.27;97151.69;6063491;23;20267;-87
2022/04/26 13:07:05;;;;;;;5.63;4.95;;;;;;;13.83;61.40;97138.09;6086521;23;20303;-87
2022/04/26 13:09:31;;;;;;;6.07;5.18;;;;;;;13.95;61.58;97135.97;6063762;23;20274;-86
2022/04/26 13:11:58;;;;;;;5.80;5.18;;;;;;;13.99;61.96;97137.00;6112354;23;20264;-87
2022/04/26 13:14:23;;;;;;;6.65;5.55;;;;;;;14.40;61.23;97157.78;6088415;23;20248;-87
2022/04/26 13:16:49;;;;;;;8.45;6.47;;;;;;;14.40;62.00;97142.06;6087853;23;20267;-87
2022/04/26 13:19:15;;;;;;;6.78;5.95;;;;;;;14.32;59.33;97132.16;6064147;23;20172;-87
2022/04/26 13:21:40;;;;;;;6.68;5.90;;;;;;;14.53;59.75;97140.72;6098116;23;20598;-86
2022/04/26 13:24:06;;;;;;;6.15;5.55;;;;;;;14.73;59.73;97146.91;6122739;23;20172;-87
2022/04/26 13:26:34;;;;;;;6.78;6.10;;;;;;;14.68;61.48;97136.47;6063317;23;20354;-86
2022/04/26 13:28:59;;;;;;;7.97;6.97;;;;;;;14.59;60.97;97147.50;6064764;23;20124;-87
2022/04/26 13:31:28;;;;;;;6.85;5.55;;;;;;;14.82;60.77;97139.25;6088944;23;20267;-87
2022/04/26 13:33:53;;;;;;;7.22;6.10;;;;;;;15.04;60.04;97155.34;6098393;23;20192;-86
2022/04/26 13:36:18;;;;;;;6.60;5.90;;;;;;;14.95;58.09;97152.53;6063062;23;20586;-87
2022/04/26 13:38:44;;;;;;;7.18;5.47;;;;;;;14.93;57.93;97151.25;6091709;23;20511;-86
2022/04/26 13:41:11;;;;;;;6.95;5.55;;;;;;;14.81;61.00;97150.81;6120554;23;20320;-87
2022/04/26 13:43:42;;;;;;;8.23;6.32;;;;;;;14.72;59.97;97146.13;6062298;23;20115;-87
2022/04/26 13:46:10;;;;;;;7.70;5.90;;;;;;;15.02;59.59;97154.84;6109438;23;20183;-86
2022/04/26 13:48:35;;;;;;;6.93;5.53;;;;;;;14.92;58.05;97141.81;6062899;23;20175;-85
2022/04/26 13:51:01;;;;;;;7.25;6.03;;;;;;;14.75;59.73;97153.47;6086490;23;20539;-86
2022/04/26 13:53:29;;;;;;;5.97;5.05;;;;;;;14.95;57.83;97136.03;6096879;23;20606;-84
2022/04/26 13:55:55;;;;;;;4.53;4.13;;;;;;;15.01;54.99;97144.63;6121445;23;20583;-85
2022/04/26 13:58:20;;;;;;;4.47;3.95;;;;;;;14.95;56.12;97146.50;6086676;23;20175;-87
2022/04/26 14:00:45;;;;;;;4.18;3.67;;;;;;;14.98;54.34;97156.47;6062166;23;20188;-85
2022/04/26 14:03:11;;;;;;;4.07;3.40;;;;;;;14.74;56.13;97154.50;6096352;23;20641;-84
2022/04/26 14:05:37;;;;;;;3.58;3.28;;;;;;;14.77;55.48;97155.78;6096531;23;20524;-85
2022/04/26 14:08:03;;;;;;;5.55;4.82;;;;;;;14.94;55.32;97153.59;6096391;23;20221;-86
2022/04/26 14:10:28;;;;;;;3.05;2.72;;;;;;;15.05;54.24;97156.94;6121566;23;20159;-85
2022/04/26 14:12:55;;;;;;;2.80;2.58;;;;;;;14.62;53.96;97161.91;6062245;23;20188;-83
2022/04/26 14:23:33;;;;;;;3.45;2.92;;;;;;;14.58;55.80;97168.69;6090024;23;20179;-83
2022/04/26 14:25:59;;;;;;;4.25;3.78;;;;;;;14.68;56.81;97173.16;6085814;23;20286;-86
2022/04/26 14:28:24;;;;;;;3.90;3.45;;;;;;;14.41;57.45;97185.56;6060992;23;20152;-86
2022/04/26 14:30:49;;;;;;;4.90;4.35;;;;;;;13.80;59.37;97186.50;6086942;23;20720;-84
2022/04/26 14:33:15;;;;;;;6.00;4.70;;;;;;;13.53;61.04;97180.78;6096045;23;20435;-85
2022/04/26 14:35:44;;;;;;;5.47;4.90;;;;;;;13.73;61.24;97193.09;6085728;23;20606;-84
2022/04/26 14:38:10;;;;;;;7.88;4.75;;;;;;;13.00;63.47;97213.13;6063103;23;20216;-87
2022/04/26 14:40:37;;;;;;;5.28;3.92;;;;;;;13.03;63.11;97209.25;6063659;23;20191;-84
2022/04/26 14:43:09;;;;;;;3.75;3.38;;;;;;;12.83;63.39;97210.75;6096625;23;20661;-90
2022/04/26 14:45:46;;;;;;;4.10;3.70;;;;;;;12.86;63.48;97219.91;6120441;23;20175;-86
2022/04/26 14:48:14;;;;;;;3.50;3.20;;;;;;;12.64;63.45;97222.72;6038882;23;20171;-87
2022/04/26 14:50:42;;;;;;;4.15;3.30;;;;;;;12.47;63.19;97200.19;6059947;23;20295;-87
2022/04/26 14:53:08;;;;;;;3.58;2.90;;;;;;;12.76;64.55;97225.13;6088035;23;20168;-88
2022/04/26 14:55:33;;;;;;;3.22;2.92;;;;;;;12.50;64.11;97235.47;6076121;23;20277;-84
2022/04/26 14:57:59;;;;;;;3.70;3.10;;;;;;;12.78;63.78;97229.03;6063516;23;20179;-85
2022/04/26 15:00:24;;;;;;;3.45;2.80;;;;;;;12.80;64.19;97240.03;6062105;23;20160;-87
2022/04/26 15:02:49;;;;;;;3.20;2.90;;;;;;;12.72;64.70;97235.28;6098699;23;20135;-84
2022/04/26 15:05:16;;;;;;;3.42;2.60;;;;;;;12.67;64.76;97232.66;6062812;23;20250;-83
2022/04/26 15:10:27;;;;;;;2.50;2.28;;;;;;;12.72;63.83;97236.06;6090839;23;20598;-84
2022/04/26 15:18:23;;;;;;;2.45;2.13;;;;;;;12.91;64.38;97251.28;6150099;23;20008;-86
2022/04/26 15:20:52;;;;;;;2.10;1.65;;;;;;;12.97;63.09;97241.63;6147424;23;20004;-85
2022/04/26 15:23:18;;;;;;;1.90;1.70;;;;;;;12.91;63.56;97244.22;6115987;23;20008;-85
2022/04/26 15:25:55;;;;;;;2.72;2.00;;;;;;;12.87;63.99;97239.78;6145263;23;20027;-86
2022/04/26 15:28:23;;;;;;;2.10;1.90;;;;;;;12.87;64.81;97258.09;6093381;22;20626;-86
2022/04/26 15:30:50;;;;;;;2.50;1.65;;;;;;;12.73;63.59;97234.22;6150013;23;20075;-88
2022/04/26 15:33:16;;;;;;;1.60;1.50;;;;;;;12.71;64.33;97259.84;6125355;23;20000;-85
2022/04/26 15:35:42;;;;;;;2.58;1.77;;;;;;;12.90;63.71;97270.63;6115954;23;20000;-83
2022/04/26 15:38:12;;;;;;;1.83;1.48;;;;;;;12.76;63.00;97259.06;6085614;23;20008;-86
2022/04/26 15:40:39;;;;;;;2.83;1.48;;;;;;;12.74;62.02;97243.66;6111522;23;20020;-87
2022/04/26 15:43:05;;;;;;;2.00;1.90;;;;;;;12.83;63.63;97263.00;6086810;23;20024;-84